Time;durP1;ratioP1;P1;durP2;ratioP2;P2;SDS_P1;SDS_P2;PMS_P1;PMS_P2;Temp;Humidity;BMP_temperature;BMP_pressure;BME280_temperature;BME280_humidity;BME280_pressure;Samples;Min_cycle;Max_cycle;Signal;HPM_P1;HPM_P2
2022/06/14 00:01:34;;;;;;;3.78;1.70;;;10.10;99.90;;;;;;5090347;28;20558;-50
2022/06/14 00:04:00;;;;;;;2.97;1.35;;;10.10;99.90;;;;;;5055363;28;20020;-51
2022/06/14 00:06:30;;;;;;;5.35;1.63;;;10.10;99.90;;;;;;5090526;28;20020;-49
2022/06/14 00:08:56;;;;;;;6.03;2.10;;;10.00;99.90;;;;;;5090189;28;20616;-46
2022/06/14 00:11:23;;;;;;;3.35;1.50;;;10.00;99.90;;;;;;5090381;28;20051;-49
2022/06/14 00:13:50;;;;;;;4.22;2.00;;;10.00;99.90;;;;;;5090531;28;20470;-47
2022/06/14 00:16:16;;;;;;;4.32;1.90;;;9.90;99.90;;;;;;5069425;28;20113;-49
2022/06/14 00:18:42;;;;;;;3.75;1.48;;;9.90;99.90;;;;;;5072268;28;20028;-51
2022/06/14 00:21:08;;;;;;;3.42;2.13;;;9.90;99.90;;;;;;5089725;28;20028;-48
2022/06/14 00:23:34;;;;;;;2.95;1.88;;;9.80;99.90;;;;;;5090241;28;20138;-48
2022/06/14 00:26:02;;;;;;;5.57;1.70;;;9.80;99.90;;;;;;5089772;28;20031;-47
2022/06/14 00:28:29;;;;;;;3.47;1.45;;;9.80;99.90;;;;;;5089751;28;20535;-49
2022/06/14 00:30:58;;;;;;;3.20;1.95;;;9.80;99.90;;;;;;5071482;28;20032;-51
2022/06/14 00:33:24;;;;;;;2.65;1.30;;;9.80;99.90;;;;;;5089770;28;20044;-49
2022/06/14 00:35:58;;;;;;;6.22;2.10;;;9.70;99.90;;;;;;5089826;28;20551;-50
2022/06/14 00:38:23;;;;;;;6.13;2.30;;;9.70;99.90;;;;;;5071610;28;20017;-50
2022/06/14 00:40:54;;;;;;;5.05;2.10;;;9.70;99.90;;;;;;5089513;28;20032;-49
2022/06/14 00:43:20;;;;;;;4.05;1.70;;;9.60;99.90;;;;;;5081890;28;20028;-47
2022/06/14 00:45:48;;;;;;;4.75;1.70;;;9.70;99.90;;;;;;5054867;28;20057;-50
2022/06/14 00:48:26;;;;;;;4.07;1.73;;;9.70;99.90;;;;;;5089911;28;20047;-47
2022/06/14 00:51:16;;;;;;;3.03;1.65;;;9.70;99.90;;;;;;5071471;28;20048;-48
2022/06/14 00:54:09;;;;;;;4.07;1.60;;;9.70;99.90;;;;;;5069545;28;20474;-48
2022/06/14 00:56:48;;;;;;;2.95;1.73;;;9.70;99.90;;;;;;5086999;28;20020;-50
2022/06/14 00:59:24;;;;;;;6.68;2.28;;;9.80;99.90;;;;;;5069384;28;20034;-48
2022/06/14 01:01:54;;;;;;;4.60;1.98;;;9.80;99.90;;;;;;5086414;28;20028;-48
2022/06/14 01:04:27;;;;;;;7.20;1.95;;;9.80;99.90;;;;;;5087963;28;20024;-47
2022/06/14 01:06:53;;;;;;;5.22;1.70;;;9.80;99.90;;;;;;5071118;28;20024;-46
2022/06/14 01:09:52;;;;;;;5.60;1.90;;;9.80;99.90;;;;;;5071501;28;20030;-47
2022/06/14 01:12:26;;;;;;;7.05;2.20;;;9.80;99.90;;;;;;5085908;28;20024;-47
2022/06/14 01:15:21;;;;;;;4.75;1.83;;;9.90;99.90;;;;;;5087742;28;20035;-51
2022/06/14 01:17:51;;;;;;;2.83;1.52;;;9.90;99.90;;;;;;5089117;28;20028;-49
2022/06/14 01:20:19;;;;;;;6.28;2.15;;;9.90;99.90;;;;;;5070833;28;20490;-48
2022/06/14 01:22:46;;;;;;;6.05;1.77;;;9.90;99.90;;;;;;5089540;28;20031;-48
2022/06/14 01:25:12;;;;;;;8.65;2.90;;;9.90;99.90;;;;;;5089329;28;20024;-46
2022/06/14 01:27:40;;;;;;;4.35;1.60;;;10.00;99.90;;;;;;5089368;28;20020;-48
2022/06/14 01:30:25;;;;;;;5.75;2.13;;;10.00;99.90;;;;;;5089108;28;20534;-46
2022/06/14 01:33:22;;;;;;;5.82;1.85;;;10.00;99.90;;;;;;5088602;28;20355;-47
2022/06/14 01:35:54;;;;;;;3.95;1.88;;;10.00;99.90;;;;;;5064628;28;20139;-47
2022/06/14 01:38:19;;;;;;;7.97;2.22;;;10.00;99.90;;;;;;5084962;28;20119;-47
2022/06/14 01:41:27;;;;;;;6.28;2.08;;;10.00;99.90;;;;;;5089157;28;20158;-48
2022/06/14 01:43:59;;;;;;;9.02;1.90;;;10.00;99.90;;;;;;5088145;28;20024;-50
2022/06/14 01:46:27;;;;;;;4.72;1.98;;;10.00;99.90;;;;;;5089185;28;20026;-47
2022/06/14 01:52:34;;;;;;;7.88;2.17;;;10.00;99.90;;;;;;5087594;28;20035;-47
2022/06/14 01:55:19;;;;;;;5.38;2.58;;;10.00;99.90;;;;;;5087496;28;20410;-48
2022/06/14 01:57:50;;;;;;;3.10;1.60;;;10.00;99.90;;;;;;5086790;28;20020;-47
2022/06/14 02:00:24;;;;;;;7.00;1.40;;;10.00;99.90;;;;;;5059376;28;20409;-48
2022/06/14 02:06:05;;;;;;;8.25;2.38;;;10.10;99.90;;;;;;5089453;28;20550;-47
2022/06/14 02:08:36;;;;;;;3.83;1.40;;;10.10;99.90;;;;;;5086905;28;20577;-47
2022/06/14 02:11:13;;;;;;;7.55;1.90;;;10.00;99.90;;;;;;5057652;28;20051;-48
2022/06/14 02:13:49;;;;;;;4.78;1.98;;;10.00;99.90;;;;;;5092252;28;20069;-48
2022/06/14 02:16:27;;;;;;;5.90;2.13;;;10.00;99.90;;;;;;5083990;28;20020;-48
2022/06/14 02:19:01;;;;;;;6.13;1.83;;;10.00;99.90;;;;;;5092714;28;20462;-50
2022/06/14 02:21:37;;;;;;;5.63;1.80;;;10.00;99.90;;;;;;5085721;28;20569;-50
2022/06/14 02:24:52;;;;;;;6.88;1.90;;;10.00;99.90;;;;;;5074038;28;20023;-50
2022/06/14 02:27:38;;;;;;;6.70;2.30;;;10.00;99.90;;;;;;5064106;28;20587;-48
2022/06/14 02:30:26;;;;;;;2.67;1.92;;;10.00;99.90;;;;;;5039445;28;20601;-48
2022/06/14 02:32:56;;;;;;;5.47;2.05;;;9.90;99.90;;;;;;5065870;28;20487;-47
2022/06/14 02:35:24;;;;;;;5.13;1.52;;;9.90;99.90;;;;;;5092459;28;20027;-49
2022/06/14 02:38:04;;;;;;;6.07;2.10;;;9.90;99.90;;;;;;5092432;28;20016;-47
2022/06/14 02:40:37;;;;;;;4.43;1.80;;;9.90;99.90;;;;;;5092395;28;20024;-47
2022/06/14 02:43:18;;;;;;;3.45;1.65;;;9.80;99.90;;;;;;5091545;28;20020;-48
2022/06/14 02:46:04;;;;;;;9.05;3.15;;;9.80;99.90;;;;;;5092215;28;20099;-48
2022/06/14 02:48:37;;;;;;;4.38;1.98;;;9.80;99.90;;;;;;5091102;28;20027;-48
2022/06/14 02:51:13;;;;;;;3.00;1.77;;;9.80;99.90;;;;;;5092064;28;20616;-51
2022/06/14 02:53:50;;;;;;;4.18;1.73;;;9.80;99.90;;;;;;5073335;28;20111;-47
2022/06/14 02:56:19;;;;;;;4.65;1.92;;;9.70;99.90;;;;;;5084807;28;20028;-49
2022/06/14 02:58:56;;;;;;;3.53;1.75;;;9.70;99.90;;;;;;5073486;28;20379;-47
2022/06/14 03:01:45;;;;;;;5.07;1.77;;;9.70;99.90;;;;;;5084499;28;20094;-49
2022/06/14 03:04:31;;;;;;;4.55;2.10;;;9.70;99.90;;;;;;5090880;28;20101;-48
2022/06/14 03:07:13;;;;;;;6.97;2.45;;;9.70;99.90;;;;;;5091353;28;20125;-48
2022/06/14 03:09:41;;;;;;;4.22;1.52;;;9.70;99.90;;;;;;5091663;28;20365;-50
2022/06/14 03:12:14;;;;;;;6.18;2.20;;;9.70;99.90;;;;;;5090929;28;20575;-47
2022/06/14 03:14:58;;;;;;;10.00;3.15;;;9.70;99.90;;;;;;5072721;28;20027;-50
2022/06/14 03:18:07;;;;;;;6.35;1.80;;;9.70;99.90;;;;;;5087918;28;20039;-48
2022/06/14 03:20:52;;;;;;;6.20;2.85;;;9.70;99.90;;;;;;5068850;28;20552;-47
2022/06/14 03:23:27;;;;;;;5.28;2.17;;;9.70;99.90;;;;;;5083507;28;20020;-47
2022/06/14 03:26:04;;;;;;;5.53;1.75;;;9.80;99.90;;;;;;5091267;28;20074;-51
2022/06/14 03:28:38;;;;;;;3.80;2.03;;;9.80;99.90;;;;;;5091350;28;20021;-49
2022/06/14 03:31:10;;;;;;;4.07;1.73;;;9.80;99.90;;;;;;5091038;28;20044;-48
2022/06/14 03:33:44;;;;;;;4.53;1.85;;;9.80;99.90;;;;;;5091192;28;20031;-47
2022/06/14 03:36:10;;;;;;;6.30;2.65;;;9.80;99.90;;;;;;5090956;28;20024;-48
2022/06/14 03:38:54;;;;;;;7.13;1.83;;;9.90;99.90;;;;;;5072776;28;20020;-48
2022/06/14 03:41:24;;;;;;;4.63;2.17;;;9.90;99.90;;;;;;5072348;28;20024;-47
2022/06/14 03:43:52;;;;;;;5.20;2.10;;;9.90;99.90;;;;;;5090687;28;20024;-47
2022/06/14 03:46:21;;;;;;;4.88;1.80;;;9.90;99.90;;;;;;5072715;28;20028;-47
2022/06/14 03:48:53;;;;;;;7.22;2.80;;;9.90;99.90;;;;;;5072982;28;20039;-48
2022/06/14 03:51:37;;;;;;;3.97;1.88;;;9.90;99.90;;;;;;5088077;28;20341;-50
2022/06/14 03:54:47;;;;;;;8.27;2.22;;;9.90;99.90;;;;;;5090551;28;20050;-46
2022/06/14 03:57:38;;;;;;;5.45;1.45;;;10.00;99.90;;;;;;5072221;28;20557;-48
2022/06/14 04:00:08;;;;;;;5.53;2.63;;;10.00;99.90;;;;;;5090369;28;20115;-47
2022/06/14 04:02:54;;;;;;;9.30;2.38;;;10.10;99.90;;;;;;5071988;28;20478;-46
2022/06/14 04:05:25;;;;;;;7.00;1.98;;;10.10;99.90;;;;;;5086960;28;20413;-47
2022/06/14 04:08:01;;;;;;;8.68;2.08;;;10.10;99.90;;;;;;5090517;28;20470;-47
2022/06/14 04:10:39;;;;;;;8.30;2.15;;;10.20;99.90;;;;;;5072059;28;20027;-46
2022/06/14 04:13:26;;;;;;;4.80;1.90;;;10.20;99.90;;;;;;5071618;28;20417;-46
2022/06/14 04:16:13;;;;;;;4.13;1.63;;;10.20;99.90;;;;;;5089969;28;20063;-47
2022/06/14 04:19:21;;;;;;;6.63;1.75;;;10.20;99.90;;;;;;5090382;28;20179;-47
2022/06/14 04:21:51;;;;;;;9.10;2.15;;;10.30;99.90;;;;;;5064263;28;20058;-47
2022/06/14 04:24:17;;;;;;;8.05;2.58;;;10.30;99.90;;;;;;5088858;28;20016;-52
2022/06/14 04:27:05;;;;;;;3.58;1.83;;;10.30;99.90;;;;;;5090363;28;20027;-50
2022/06/14 04:29:31;;;;;;;3.63;1.90;;;10.30;99.90;;;;;;5088754;28;20013;-48
2022/06/14 04:32:03;;;;;;;5.82;1.95;;;10.40;99.90;;;;;;5071035;28;20490;-48
2022/06/14 04:34:35;;;;;;;3.90;1.95;;;10.40;99.90;;;;;;5089643;28;20028;-49
2022/06/14 04:37:19;;;;;;;5.85;2.53;;;10.30;99.90;;;;;;5089799;28;20501;-50
2022/06/14 04:40:01;;;;;;;6.00;2.75;;;10.40;99.90;;;;;;5067652;28;20024;-46
2022/06/14 04:42:34;;;;;;;9.38;2.20;;;10.40;99.90;;;;;;5083310;28;20154;-49
2022/06/14 04:45:10;;;;;;;2.70;1.70;;;10.40;99.90;;;;;;5083867;28;20028;-48
2022/06/14 04:47:52;;;;;;;3.72;2.00;;;10.40;99.90;;;;;;5071165;28;20033;-47
2022/06/14 04:50:26;;;;;;;8.75;2.83;;;10.40;99.90;;;;;;5063801;28;20031;-46
2022/06/14 04:53:02;;;;;;;6.47;2.33;;;10.50;99.90;;;;;;5088746;28;20544;-49
2022/06/14 04:55:35;;;;;;;5.40;2.37;;;10.60;99.90;;;;;;5071332;28;20024;-47
2022/06/14 04:58:13;;;;;;;6.00;2.72;;;10.70;99.90;;;;;;5089570;28;20107;-50
2022/06/14 05:00:57;;;;;;;4.43;2.30;;;11.00;99.90;;;;;;5071737;28;20096;-47
2022/06/14 05:03:41;;;;;;;8.98;2.42;;;11.10;99.90;;;;;;5069814;28;20025;-47
2022/06/14 05:06:22;;;;;;;5.55;2.13;;;11.30;99.90;;;;;;5089370;28;20238;-47
2022/06/14 05:09:06;;;;;;;5.50;1.67;;;11.50;99.90;;;;;;5071203;28;20016;-48
2022/06/14 05:11:54;;;;;;;7.30;2.38;;;11.60;99.90;;;;;;5065055;28;20030;-47
2022/06/14 05:14:35;;;;;;;5.32;2.33;;;11.80;99.90;;;;;;5081925;28;20016;-45
2022/06/14 05:17:27;;;;;;;6.90;2.17;;;12.00;99.90;;;;;;5089255;28;20039;-47
2022/06/14 05:20:05;;;;;;;6.95;2.50;;;12.10;99.90;;;;;;5088645;28;20498;-48
2022/06/14 05:22:44;;;;;;;8.57;1.75;;;12.20;99.90;;;;;;5088350;28;20070;-47
2022/06/14 05:25:12;;;;;;;6.32;2.28;;;12.20;99.90;;;;;;5089270;28;20028;-46
2022/06/14 05:27:48;;;;;;;10.27;2.08;;;12.30;99.90;;;;;;5089345;28;20027;-48
2022/06/14 05:30:44;;;;;;;8.95;1.90;;;12.30;99.90;;;;;;5071186;28;20026;-46
2022/06/14 05:33:33;;;;;;;6.70;2.23;;;12.30;99.90;;;;;;5088198;28;20020;-47
2022/06/14 05:36:23;;;;;;;5.78;2.22;;;12.40;99.90;;;;;;5089229;28;20299;-48
2022/06/14 05:39:10;;;;;;;10.20;2.50;;;12.30;99.90;;;;;;5089683;28;20027;-49
2022/06/14 05:41:45;;;;;;;6.20;2.10;;;12.30;99.90;;;;;;5085552;28;20114;-48
2022/06/14 05:44:13;;;;;;;8.00;2.13;;;12.30;99.90;;;;;;5093065;28;20020;-48
2022/06/14 05:46:39;;;;;;;6.47;2.67;;;12.40;99.90;;;;;;5074811;28;20016;-47
2022/06/14 05:49:35;;;;;;;8.73;2.95;;;12.40;99.90;;;;;;5093182;28;20039;-48
2022/06/14 05:52:17;;;;;;;4.05;1.92;;;12.50;99.90;;;;;;5069654;28;20119;-48
2022/06/14 05:54:52;;;;;;;8.93;1.85;;;12.60;99.90;;;;;;5093013;28;20031;-45
2022/06/14 05:57:34;;;;;;;10.52;2.20;;;12.70;99.90;;;;;;5085151;28;20028;-48
2022/06/14 06:00:14;;;;;;;4.93;2.05;;;12.80;99.90;;;;;;5092908;28;20024;-50
2022/06/14 06:02:49;;;;;;;6.90;2.33;;;12.80;99.90;;;;;;5074195;28;20143;-49
2022/06/14 06:05:28;;;;;;;7.47;1.98;;;12.90;99.90;;;;;;5092627;28;20103;-47
2022/06/14 06:08:11;;;;;;;6.28;1.80;;;12.90;99.90;;;;;;5092870;28;20099;-47
2022/06/14 06:10:41;;;;;;;6.45;1.98;;;12.90;99.90;;;;;;5092835;28;20089;-47
2022/06/14 06:13:22;;;;;;;4.22;1.85;;;12.90;99.90;;;;;;5092192;28;20584;-48
2022/06/14 06:15:56;;;;;;;8.45;1.60;;;13.00;99.90;;;;;;5092571;28;20043;-48
2022/06/14 06:18:50;;;;;;;4.97;1.98;;;13.10;99.90;;;;;;5086060;28;20032;-47
2022/06/14 06:21:30;;;;;;;9.02;2.22;;;13.30;99.90;;;;;;5064929;28;20032;-47
2022/06/14 06:24:03;;;;;;;6.78;2.72;;;13.40;99.90;;;;;;5091670;28;20020;-49
2022/06/14 06:26:33;;;;;;;9.52;2.58;;;13.60;99.90;;;;;;5091841;28;20208;-48
2022/06/14 06:29:15;;;;;;;9.57;2.55;;;13.90;99.90;;;;;;5092420;28;20219;-49
2022/06/14 06:31:42;;;;;;;6.72;2.40;;;14.20;99.90;;;;;;5092521;28;20548;-49
2022/06/14 06:34:14;;;;;;;6.85;2.50;;;14.40;99.90;;;;;;5092492;28;20398;-46
2022/06/14 06:36:59;;;;;;;5.22;1.70;;;14.70;99.90;;;;;;5092391;28;20059;-48
2022/06/14 06:40:01;;;;;;;6.05;2.10;;;14.70;99.90;;;;;;5089644;28;20081;-48
2022/06/14 06:43:00;;;;;;;7.10;2.40;;;14.90;99.90;;;;;;5067615;28;20028;-49
2022/06/14 06:45:36;;;;;;;6.30;2.15;;;14.90;99.90;;;;;;5077867;28;20708;-50
2022/06/14 06:48:13;;;;;;;8.57;2.00;;;15.00;99.90;;;;;;5092064;28;20109;-51
2022/06/14 06:50:55;;;;;;;8.82;2.65;;;15.10;99.90;;;;;;5074183;28;20024;-47
2022/06/14 06:53:24;;;;;;;6.70;2.40;;;15.30;99.90;;;;;;5091460;28;20521;-50
2022/06/14 06:56:00;;;;;;;8.32;1.70;;;15.40;99.90;;;;;;5092246;28;20027;-50
2022/06/14 06:58:29;;;;;;;7.93;2.22;;;15.60;99.90;;;;;;5092053;28;20055;-50
2022/06/14 07:00:58;;;;;;;9.57;2.83;;;15.70;99.90;;;;;;5092225;28;20027;-49
2022/06/14 07:03:33;;;;;;;8.52;2.10;;;15.80;99.90;;;;;;5091263;28;20043;-52
2022/06/14 07:06:01;;;;;;;;;;;15.80;99.90;;;;;;5091907;28;20028;-46
2022/06/14 07:08:44;;;;;;;4.32;1.98;;;15.80;99.90;;;;;;5091840;28;19904;-50
2022/06/14 07:11:17;;;;;;;8.18;1.95;;;15.80;99.90;;;;;;5091700;28;20024;-49
2022/06/14 07:13:56;;;;;;;13.60;2.53;;;15.80;99.90;;;;;;5072507;28;20020;-53
2022/06/14 07:16:35;;;;;;;6.07;1.73;;;15.70;99.90;;;;;;5084265;28;20024;-48
2022/06/14 07:19:16;;;;;;;6.60;2.05;;;15.50;99.90;;;;;;5091423;28;20436;-48
2022/06/14 07:21:53;;;;;;;5.50;1.70;;;15.50;99.90;;;;;;5090408;28;20119;-51
2022/06/14 07:24:25;;;;;;;5.25;1.70;;;15.40;99.90;;;;;;5090185;28;20012;-47
2022/06/14 07:26:57;;;;;;;8.85;1.67;;;15.50;99.90;;;;;;5090903;28;20504;-47
2022/06/14 07:29:29;;;;;;;7.40;2.38;;;15.60;99.90;;;;;;5091598;28;20012;-47
2022/06/14 07:32:07;;;;;;;6.53;1.80;;;15.90;99.90;;;;;;5091324;28;20035;-50
2022/06/14 07:34:34;;;;;;;9.38;2.45;;;16.00;99.90;;;;;;5091352;28;20100;-49
2022/06/14 07:37:02;;;;;;;4.45;1.90;;;16.00;99.90;;;;;;5091381;28;20035;-50
2022/06/14 07:40:05;;;;;;;5.95;1.90;;;15.90;99.90;;;;;;5091120;28;20020;-50
2022/06/14 07:42:54;;;;;;;6.55;2.47;;;15.80;99.90;;;;;;5085469;28;20031;-51
2022/06/14 07:45:22;;;;;;;5.25;1.85;;;15.60;99.90;;;;;;5083517;28;20029;-51
2022/06/14 07:48:07;;;;;;;6.25;2.20;;;15.40;99.90;;;;;;5072979;28;20031;-48
2022/06/14 07:50:35;;;;;;;6.47;2.30;;;15.30;99.90;;;;;;5085349;28;20157;-48
2022/06/14 07:53:10;;;;;;;8.10;2.13;;;15.20;99.90;;;;;;5072100;28;20061;-51
2022/06/14 07:55:44;;;;;;;6.18;1.90;;;15.10;99.90;;;;;;5090756;28;20103;-50
2022/06/14 07:58:15;;;;;;;6.85;1.67;;;15.10;99.90;;;;;;5090697;28;20085;-49
2022/06/14 08:03:37;;;;;;;5.88;1.98;;;15.20;99.90;;;;;;5089263;28;20123;-48
2022/06/14 08:06:12;;;;;;;5.20;1.42;;;15.20;99.90;;;;;;5090353;28;20114;-50
2022/06/14 08:08:42;;;;;;;4.30;2.33;;;15.20;99.90;;;;;;5090963;28;20433;-49
2022/06/14 08:11:20;;;;;;;5.93;1.70;;;15.70;99.90;;;;;;5090814;28;20059;-48
2022/06/14 08:14:02;;;;;;;8.00;1.90;;;16.40;99.90;;;;;;5089785;28;20095;-52
2022/06/14 08:16:28;;;;;;;3.20;1.67;;;16.70;99.90;;;;;;5083963;28;20027;-49
2022/06/14 08:18:59;;;;;;;7.63;1.48;;;16.40;99.90;;;;;;5090174;28;20023;-48
2022/06/14 08:21:41;;;;;;;8.48;2.15;;;16.30;99.90;;;;;;5089665;28;20023;-47
2022/06/14 08:24:20;;;;;;;11.10;2.10;;;16.10;99.90;;;;;;5090061;28;20378;-51
2022/06/14 08:26:52;;;;;;;10.20;1.83;;;15.90;99.90;;;;;;5071943;28;20434;-53
2022/06/14 08:29:26;;;;;;;4.05;2.03;;;15.70;99.90;;;;;;5087724;28;20008;-50
2022/06/14 08:32:06;;;;;;;7.03;1.98;;;15.60;99.90;;;;;;5089508;28;20043;-49
2022/06/14 08:34:45;;;;;;;4.90;1.80;;;15.50;99.90;;;;;;5089799;28;20430;-49
2022/06/14 08:37:30;;;;;;;3.55;1.48;;;15.50;99.90;;;;;;5089998;28;20028;-53
2022/06/14 08:40:21;;;;;;;7.20;1.75;;;15.60;99.90;;;;;;5087544;28;20111;-50
2022/06/14 08:42:56;;;;;;;6.80;2.13;;;15.70;99.90;;;;;;5071201;28;20043;-50
2022/06/14 08:45:30;;;;;;;6.70;2.08;;;16.00;99.90;;;;;;5083137;28;20024;-50
2022/06/14 08:48:08;;;;;;;7.72;1.75;;;16.30;99.90;;;;;;5089964;28;20020;-50
2022/06/14 08:50:48;;;;;;;5.57;1.42;;;16.90;99.90;;;;;;5090022;28;20125;-52
2022/06/14 08:53:32;;;;;;;3.25;1.90;;;17.40;99.90;;;;;;5088410;28;20020;-48
2022/06/14 08:56:15;;;;;;;5.32;1.80;;;17.40;99.90;;;;;;5089702;28;20020;-48
2022/06/14 08:59:17;;;;;;;2.63;1.65;;;17.60;99.90;;;;;;5085143;28;20027;-50
2022/06/14 09:02:19;;;;;;;6.80;1.65;;;18.10;99.90;;;;;;5088086;28;20031;-50
2022/06/14 09:04:51;;;;;;;6.35;1.45;;;18.20;99.90;;;;;;5085322;28;20061;-48
2022/06/14 09:07:45;;;;;;;7.80;1.38;;;18.10;99.90;;;;;;5088236;28;20073;-53
2022/06/14 09:10:28;;;;;;;5.50;1.05;;;17.90;99.90;;;;;;5089480;28;20047;-53
2022/06/14 09:13:22;;;;;;;5.28;1.45;;;17.70;99.90;;;;;;5088611;28;20024;-48
2022/06/14 09:15:53;;;;;;;4.35;1.35;;;17.60;99.90;;;;;;5088598;28;20015;-48
2022/06/14 09:18:29;;;;;;;3.58;1.25;;;17.40;99.90;;;;;;5079583;28;20016;-48
2022/06/14 09:21:16;;;;;;;6.95;2.22;;;17.30;99.90;;;;;;5070885;28;20036;-50
2022/06/14 09:23:57;;;;;;;3.03;1.30;;;17.10;99.90;;;;;;5089725;28;20020;-48
2022/06/14 09:26:42;;;;;;;5.00;1.33;;;17.20;99.90;;;;;;5063988;28;20020;-50
2022/06/14 09:29:26;;;;;;;3.45;1.38;;;17.30;99.90;;;;;;5089169;28;20035;-49
2022/06/14 09:32:18;;;;;;;5.45;1.67;;;17.60;99.90;;;;;;5088658;28;20021;-50
2022/06/14 09:34:52;;;;;;;3.95;1.27;;;17.60;99.90;;;;;;5067071;28;20020;-50
2022/06/14 09:37:34;;;;;;;3.30;1.60;;;17.70;99.90;;;;;;5083133;28;20070;-53
2022/06/14 09:40:17;;;;;;;7.28;1.48;;;17.70;99.90;;;;;;5087330;28;20153;-51
2022/06/14 09:43:08;;;;;;;3.78;1.77;;;17.60;99.90;;;;;;5088628;28;20509;-47
2022/06/14 09:45:52;;;;;;;6.05;1.38;;;17.70;99.90;;;;;;5065523;28;20019;-53
2022/06/14 09:48:26;;;;;;;4.68;1.17;;;17.50;99.90;;;;;;5081398;28;20153;-51
2022/06/14 09:51:25;;;;;;;3.97;1.20;;;17.50;99.90;;;;;;5089277;28;20070;-49
2022/06/14 09:54:21;;;;;;;3.95;1.13;;;17.50;99.90;;;;;;5085780;28;20123;-50
2022/06/14 09:57:20;;;;;;;3.90;1.20;;;17.60;99.90;;;;;;5085392;28;20016;-51
2022/06/14 10:00:03;;;;;;;2.58;1.15;;;17.60;99.90;;;;;;5086009;28;20595;-50
2022/06/14 10:02:40;;;;;;;7.35;1.27;;;17.60;99.90;;;;;;5082530;28;20443;-50
2022/06/14 10:05:12;;;;;;;3.30;1.30;;;17.70;99.90;;;;;;5088493;28;20514;-50
2022/06/14 10:08:07;;;;;;;3.25;1.23;;;17.70;99.90;;;;;;5089307;28;20024;-48
2022/06/14 10:10:53;;;;;;;2.67;1.15;;;17.80;99.90;;;;;;4994170;28;20035;-49
2022/06/14 10:13:37;;;;;;;;;;;17.90;99.90;;;;;;5081364;28;20032;-50
2022/06/14 10:16:34;;;;;;;4.95;1.63;;;17.80;99.90;;;;;;5087418;28;19911;-53
2022/06/14 10:19:22;;;;;;;4.57;1.30;;;17.90;99.90;;;;;;5088889;28;20093;-49
2022/06/14 10:22:18;;;;;;;2.67;1.00;;;17.80;99.90;;;;;;5088465;28;20478;-50
2022/06/14 10:24:58;;;;;;;1.57;1.10;;;17.80;99.90;;;;;;5084393;28;20020;-53
2022/06/14 10:30:30;;;;;;;2.90;1.10;;;17.80;99.90;;;;;;5085654;28;20051;-52
2022/06/14 10:33:04;;;;;;;3.53;1.30;;;18.00;99.90;;;;;;5091921;28;20032;-51
2022/06/14 10:36:07;;;;;;;5.05;1.05;;;18.00;99.90;;;;;;5092853;28;20474;-48
2022/06/14 10:39:08;;;;;;;3.67;1.13;;;18.20;99.90;;;;;;5086833;28;20245;-49
2022/06/14 10:42:00;;;;;;;3.83;1.90;;;18.30;99.90;;;;;;5086713;28;20031;-51
2022/06/14 10:44:42;;;;;;;4.28;1.20;;;18.30;99.90;;;;;;5088710;28;20409;-49
2022/06/14 10:47:22;;;;;;;3.72;1.52;;;18.30;99.90;;;;;;5074183;28;20075;-49
2022/06/14 10:50:02;;;;;;;7.72;1.58;;;18.50;99.90;;;;;;5092172;28;20052;-53
2022/06/14 10:52:45;;;;;;;5.75;1.48;;;18.90;99.90;;;;;;5085558;28;20021;-52
2022/06/14 10:55:33;;;;;;;5.20;1.20;;;19.30;99.90;;;;;;5073221;28;20085;-54
2022/06/14 10:58:19;;;;;;;5.00;1.23;;;19.30;99.50;;;;;;5073625;28;20024;-53
2022/06/14 11:00:55;;;;;;;7.63;1.92;;;19.20;99.90;;;;;;5091940;28;20059;-53
2022/06/14 11:03:26;;;;;;;4.43;1.10;;;19.10;99.70;;;;;;5089655;28;20020;-51
2022/06/14 11:06:24;;;;;;;2.78;1.30;;;19.20;99.90;;;;;;5091658;28;20039;-50
2022/06/14 11:09:22;;;;;;;4.03;1.10;;;19.00;99.90;;;;;;5087682;28;20515;-49
2022/06/14 11:11:55;;;;;;;4.18;1.20;;;18.90;99.90;;;;;;5091277;28;20043;-49
2022/06/14 11:14:49;;;;;;;7.10;1.25;;;18.70;99.90;;;;;;5084652;28;20012;-49
2022/06/14 11:17:40;;;;;;;5.32;1.45;;;18.40;99.90;;;;;;5070253;28;20032;-48
2022/06/14 11:20:12;;;;;;;2.20;0.73;;;18.30;99.90;;;;;;5091404;28;20648;-52
2022/06/14 11:22:44;;;;;;;4.30;0.90;;;18.30;99.90;;;;;;5090894;28;20023;-53
2022/06/14 11:25:40;;;;;;;2.30;0.60;;;18.30;99.90;;;;;;5091299;28;20405;-49
2022/06/14 11:28:14;;;;;;;5.32;0.82;;;18.30;99.30;;;;;;5090332;28;20027;-51
2022/06/14 11:30:49;;;;;;;2.38;0.60;;;18.20;99.60;;;;;;5091312;28;20020;-49
2022/06/14 11:33:32;;;;;;;2.55;0.98;;;18.20;99.70;;;;;;5082909;28;20020;-49
2022/06/14 11:36:04;;;;;;;4.28;0.90;;;18.20;98.80;;;;;;5090973;28;20028;-51
2022/06/14 11:38:41;;;;;;;2.10;0.90;;;18.20;99.90;;;;;;5090365;28;20634;-50
2022/06/14 11:41:08;;;;;;;3.05;1.23;;;18.20;99.80;;;;;;5090806;28;20509;-49
2022/06/14 11:43:46;;;;;;;2.88;0.80;;;18.30;99.90;;;;;;5090827;28;20041;-52
2022/06/14 11:46:26;;;;;;;1.95;0.77;;;18.40;99.90;;;;;;5072593;28;20390;-50
2022/06/14 11:49:00;;;;;;;2.60;1.05;;;18.60;99.90;;;;;;5091179;28;20024;-50
2022/06/14 11:51:55;;;;;;;7.60;1.23;;;18.80;99.90;;;;;;5090889;28;20031;-53
2022/06/14 11:54:31;;;;;;;2.80;1.05;;;18.70;98.40;;;;;;5085264;28;20035;-48
2022/06/14 11:57:09;;;;;;;1.88;0.75;;;18.70;99.90;;;;;;5091071;28;20066;-49
2022/06/14 12:00:00;;;;;;;3.97;1.35;;;18.60;99.90;;;;;;5090628;28;20020;-50
2022/06/14 12:02:40;;;;;;;3.53;1.00;;;18.50;99.90;;;;;;5083661;28;20107;-48
2022/06/14 12:05:10;;;;;;;4.05;1.10;;;18.50;99.30;;;;;;5071896;28;20051;-48
2022/06/14 12:07:41;;;;;;;1.48;0.63;;;18.30;99.90;;;;;;5090593;28;20016;-48
2022/06/14 12:10:47;;;;;;;3.10;1.23;;;18.30;99.90;;;;;;5090427;28;20036;-47
2022/06/14 12:13:31;;;;;;;2.05;0.80;;;18.30;99.90;;;;;;5079657;28;20541;-51
2022/06/14 12:16:03;;;;;;;3.33;1.00;;;18.20;99.90;;;;;;5081874;28;20032;-50
2022/06/14 12:18:33;;;;;;;2.15;0.85;;;18.30;99.90;;;;;;5090526;28;20012;-49
2022/06/14 12:21:20;;;;;;;7.50;1.25;;;18.40;99.90;;;;;;5090016;28;20032;-51
2022/06/14 12:23:53;;;;;;;2.53;1.08;;;18.70;99.90;;;;;;5090323;28;20017;-50
2022/06/14 12:26:58;;;;;;;2.38;0.73;;;19.00;99.90;;;;;;5082558;28;20081;-49
2022/06/14 12:29:29;;;;;;;3.15;1.27;;;19.10;97.30;;;;;;5089173;28;20016;-48
2022/06/14 12:32:13;;;;;;;1.05;0.85;;;19.10;98.90;;;;;;5089674;28;20027;-49
2022/06/14 12:34:46;;;;;;;1.42;0.80;;;19.20;98.50;;;;;;5090076;28;20016;-50
2022/06/14 12:37:34;;;;;;;1.90;0.60;;;19.10;99.50;;;;;;5089992;28;20028;-48
2022/06/14 12:40:13;;;;;;;3.20;0.95;;;19.10;98.00;;;;;;5088006;28;20027;-48
2022/06/14 12:43:03;;;;;;;7.45;0.95;;;19.10;98.40;;;;;;5089326;28;20107;-47
2022/06/14 12:45:44;;;;;;;2.45;1.00;;;19.00;99.50;;;;;;5083643;28;20492;-48
2022/06/14 12:48:39;;;;;;;1.85;1.05;;;19.00;98.90;;;;;;5089570;28;20024;-52
2022/06/14 12:51:30;;;;;;;2.75;1.00;;;19.00;99.40;;;;;;5089373;28;20031;-47
2022/06/14 12:54:20;;;;;;;2.92;1.00;;;18.90;99.60;;;;;;5089521;28;20032;-49
2022/06/14 12:56:56;;;;;;;3.15;0.90;;;19.00;99.40;;;;;;5085864;28;20089;-49
2022/06/14 12:59:23;;;;;;;;;;;18.90;98.20;;;;;;5083692;28;20031;-49
2022/06/14 13:02:04;;;;;;;3.70;0.93;;;19.00;98.70;;;;;;5089380;28;19908;-51
2022/06/14 13:04:59;;;;;;;3.67;0.80;;;19.20;99.70;;;;;;5090185;28;20452;-48
2022/06/14 13:07:46;;;;;;;3.20;0.77;;;19.30;99.30;;;;;;5052356;28;20446;-50
2022/06/14 13:10:24;;;;;;;3.10;0.88;;;19.50;99.90;;;;;;5089583;28;20103;-49
2022/06/14 13:13:17;;;;;;;1.73;0.55;;;19.60;99.70;;;;;;5088793;28;20023;-50
2022/06/14 13:16:01;;;;;;;0.98;0.70;;;19.70;97.90;;;;;;5070812;28;20020;-49
2022/06/14 13:18:55;;;;;;;3.15;0.75;;;19.50;97.70;;;;;;5083030;28;20429;-52
2022/06/14 13:21:21;;;;;;;2.28;0.60;;;19.50;97.60;;;;;;5081447;28;20016;-49
2022/06/14 13:24:25;;;;;;;3.33;0.70;;;19.60;98.10;;;;;;5089476;28;20022;-52
2022/06/14 13:27:00;;;;;;;2.22;0.60;;;19.60;97.20;;;;;;5086222;28;20020;-51
2022/06/14 13:29:38;;;;;;;2.85;1.00;;;19.50;96.20;;;;;;5089237;28;20019;-50
2022/06/14 13:32:41;;;;;;;2.75;0.60;;;19.40;97.00;;;;;;5089052;28;20028;-48
2022/06/14 13:35:52;;;;;;;1.65;0.57;;;19.40;98.80;;;;;;5046960;28;20036;-48
2022/06/14 13:38:34;;;;;;;2.03;0.90;;;19.50;97.40;;;;;;5071444;28;20165;-51
2022/06/14 13:41:11;;;;;;;1.58;0.60;;;19.50;98.50;;;;;;5089681;28;20107;-50
2022/06/14 13:43:41;;;;;;;1.40;0.85;;;19.50;96.30;;;;;;5089367;28;20043;-51
2022/06/14 13:46:31;;;;;;;3.58;0.90;;;19.50;96.50;;;;;;5088890;28;20024;-48
2022/06/14 13:49:02;;;;;;;1.98;0.70;;;19.50;96.90;;;;;;5089264;28;20073;-49
2022/06/14 13:51:34;;;;;;;2.60;0.82;;;19.50;98.80;;;;;;5088952;28;20375;-52
2022/06/14 13:54:17;;;;;;;2.38;0.93;;;19.60;96.70;;;;;;5089123;28;20177;-49
2022/06/14 13:56:53;;;;;;;1.05;0.57;;;19.60;96.40;;;;;;5087172;28;20421;-51
2022/06/14 13:59:31;;;;;;;1.95;0.60;;;19.50;95.80;;;;;;5087420;28;20394;-49
2022/06/14 14:02:12;;;;;;;1.65;0.75;;;19.50;97.50;;;;;;5089445;28;20451;-51
2022/06/14 14:05:15;;;;;;;2.15;0.70;;;19.50;96.50;;;;;;5087731;28;20035;-48
2022/06/14 14:07:51;;;;;;;1.67;0.57;;;19.70;96.30;;;;;;5088790;28;20105;-50